createdAt,value
2024-02-02T00:00:42.627Z,5.96
2024-02-02T00:03:09.303Z,5.94
2024-02-02T00:05:35.854Z,5.95
2024-02-02T00:08:02.754Z,5.88
2024-02-02T00:10:29.476Z,5.83
2024-02-02T00:12:56.823Z,5.73
2024-02-02T00:15:23.676Z,5.68
2024-02-02T00:17:50.504Z,5.70
2024-02-02T00:20:17.202Z,5.69
2024-02-02T00:22:43.782Z,5.67
2024-02-02T00:25:10.272Z,5.65
2024-02-02T00:27:37.001Z,5.62
2024-02-02T00:30:03.888Z,5.61
2024-02-02T00:32:30.532Z,5.64
2024-02-02T00:34:57.123Z,5.66
2024-02-02T00:37:23.913Z,5.71
2024-02-02T00:39:50.441Z,5.70
2024-02-02T00:42:16.999Z,5.70
2024-02-02T00:44:43.506Z,5.75
2024-02-02T00:47:09.992Z,5.83
2024-02-02T00:49:36.651Z,5.88
2024-02-02T00:52:03.231Z,5.91
2024-02-02T00:54:30.121Z,5.95
2024-02-02T00:56:56.813Z,6.01
2024-02-02T00:59:23.632Z,6.04
2024-02-02T01:01:51.147Z,6.08
2024-02-02T01:04:17.694Z,6.10
2024-02-02T01:06:44.994Z,6.15
2024-02-02T01:09:12.202Z,6.19
2024-02-02T01:11:38.949Z,6.25
2024-02-02T01:14:05.480Z,6.30
2024-02-02T01:16:34.094Z,6.35
2024-02-02T01:19:01.179Z,6.37
2024-02-02T01:21:28.801Z,6.41
2024-02-02T01:23:55.562Z,6.41
2024-02-02T01:26:22.183Z,6.39
2024-02-02T01:28:48.659Z,6.37
2024-02-02T01:31:15.118Z,6.28
2024-02-02T01:33:41.789Z,6.26
2024-02-02T01:36:08.892Z,6.25
2024-02-02T01:38:35.492Z,6.24
2024-02-02T01:41:02.023Z,6.28
2024-02-02T01:43:30.416Z,6.29
2024-02-02T01:45:57.156Z,6.34
2024-02-02T01:48:25.475Z,6.35
2024-02-02T01:50:52.282Z,6.37
2024-02-02T01:53:18.858Z,6.38
2024-02-02T01:55:45.476Z,6.36
2024-02-02T01:58:12.254Z,6.34
2024-02-02T02:00:38.997Z,6.31
2024-02-02T02:03:06.055Z,6.26
2024-02-02T02:05:32.793Z,6.21
2024-02-02T02:07:59.516Z,6.12
2024-02-02T02:10:26.365Z,6.06
2024-02-02T02:12:52.876Z,6.01
2024-02-02T02:15:19.479Z,5.93
2024-02-02T02:17:47.533Z,5.85
2024-02-02T02:20:20.571Z,5.85
2024-02-02T02:22:47.301Z,5.92
2024-02-02T02:25:14.026Z,5.98
2024-02-02T02:27:40.540Z,6.02
2024-02-02T02:30:07.615Z,6.04
2024-02-02T02:32:34.206Z,6.08
2024-02-02T02:35:00.745Z,6.16
2024-02-02T02:37:27.209Z,6.23
2024-02-02T02:39:53.737Z,6.26
2024-02-02T02:42:20.753Z,6.28
2024-02-02T02:44:47.306Z,6.34
2024-02-02T02:47:13.957Z,6.40
2024-02-02T02:49:40.652Z,6.41
2024-02-02T02:52:08.043Z,6.41
2024-02-02T02:54:34.930Z,6.41
2024-02-02T02:57:02.151Z,6.45
2024-02-02T02:59:31.431Z,6.48
2024-02-02T03:01:58.050Z,6.53
2024-02-02T03:04:24.609Z,6.55
2024-02-02T03:06:51.213Z,6.56
2024-02-02T03:09:17.864Z,6.60
2024-02-02T03:11:44.397Z,6.58
2024-02-02T03:14:11.074Z,6.60
2024-02-02T03:16:37.695Z,6.60
2024-02-02T03:19:05.508Z,6.61
2024-02-02T03:21:32.271Z,6.64
2024-02-02T03:23:58.824Z,6.67
2024-02-02T03:26:25.356Z,6.67
2024-02-02T03:28:51.832Z,6.60
2024-02-02T03:31:18.364Z,6.63
2024-02-02T03:33:44.935Z,6.65
2024-02-02T03:36:11.494Z,6.64
2024-02-02T03:38:37.978Z,6.59
2024-02-02T03:41:04.872Z,6.57
2024-02-02T03:43:32.091Z,6.57
2024-02-02T03:45:58.622Z,6.62
2024-02-02T03:48:25.211Z,6.62
2024-02-02T03:50:51.763Z,6.59
2024-02-02T03:53:18.284Z,6.52
2024-02-02T03:55:44.803Z,6.54
2024-02-02T03:58:11.365Z,6.52
2024-02-02T04:00:37.987Z,6.60
2024-02-02T04:03:04.959Z,6.67
2024-02-02T04:05:32.011Z,6.71
2024-02-02T04:07:58.537Z,6.72
2024-02-02T04:10:25.055Z,6.70
2024-02-02T04:12:51.597Z,6.72
2024-02-02T04:15:18.120Z,6.74
2024-02-02T04:17:44.650Z,6.80
2024-02-02T04:20:11.597Z,6.88
2024-02-02T04:22:38.143Z,6.84
2024-02-02T04:25:05.100Z,6.84
2024-02-02T04:27:31.675Z,6.76
2024-02-02T04:29:58.378Z,6.79
2024-02-02T04:32:24.967Z,6.78
2024-02-02T04:34:51.489Z,6.74
2024-02-02T04:37:18.019Z,6.75
2024-02-02T04:39:44.689Z,6.73
2024-02-02T04:42:11.356Z,6.73
2024-02-02T04:44:38.107Z,6.78
2024-02-02T04:47:04.678Z,6.78
2024-02-02T04:49:31.377Z,6.73
2024-02-02T04:51:58.009Z,6.71
2024-02-02T04:54:24.561Z,6.69
2024-02-02T04:56:51.077Z,6.67
2024-02-02T04:59:17.795Z,6.65
2024-02-02T05:01:44.336Z,6.57
2024-02-02T05:04:10.864Z,6.54
2024-02-02T05:06:37.463Z,6.54
2024-02-02T05:09:04.005Z,6.51
2024-02-02T05:11:30.481Z,6.47
2024-02-02T05:13:56.955Z,6.41
2024-02-02T05:16:23.582Z,6.39
2024-02-02T05:18:51.722Z,6.37
2024-02-02T05:21:19.538Z,6.36
2024-02-02T05:23:49.574Z,6.41
2024-02-02T05:26:17.525Z,6.40
2024-02-02T05:28:44.398Z,6.42
2024-02-02T05:31:11.254Z,6.43
2024-02-02T05:33:37.947Z,6.46
2024-02-02T05:36:04.652Z,6.50
2024-02-02T05:38:31.271Z,6.56
2024-02-02T05:40:57.757Z,6.56
2024-02-02T05:43:24.798Z,6.56
2024-02-02T05:45:51.328Z,6.51
2024-02-02T05:48:17.999Z,6.56
2024-02-02T05:50:45.767Z,6.60
2024-02-02T05:53:13.864Z,7.15
2024-02-02T05:55:40.864Z,7.83
2024-02-02T05:58:07.400Z,8.31
2024-02-02T06:00:34.245Z,8.26
2024-02-02T06:03:01.044Z,8.15
2024-02-02T06:05:27.614Z,8.07
2024-02-02T06:07:54.135Z,8.04
2024-02-02T06:10:20.680Z,7.98
2024-02-02T06:12:47.180Z,7.86
2024-02-02T06:15:13.777Z,7.84
2024-02-02T06:17:40.301Z,7.73
2024-02-02T06:20:07.851Z,7.69
2024-02-02T06:22:34.477Z,7.63
2024-02-02T06:25:01.124Z,7.58
2024-02-02T06:27:28.624Z,7.45
2024-02-02T06:29:55.281Z,7.35
2024-02-02T06:32:24.653Z,7.28
2024-02-02T06:34:56.644Z,7.28
2024-02-02T06:37:24.617Z,7.27
2024-02-02T06:39:53.255Z,7.23
2024-02-02T06:42:20.448Z,7.21
2024-02-02T06:44:47.113Z,7.19
2024-02-02T06:47:13.577Z,7.16
2024-02-02T06:49:40.115Z,7.18
2024-02-02T06:52:06.876Z,7.18
2024-02-02T06:54:33.407Z,7.19
2024-02-02T06:56:59.919Z,7.16
2024-02-02T06:59:26.426Z,7.07
2024-02-02T07:01:53.784Z,7.02
2024-02-02T07:04:20.448Z,7.00
2024-02-02T07:06:48.388Z,6.97
2024-02-02T07:09:24.180Z,6.92
2024-02-02T07:12:04.858Z,6.86
2024-02-02T07:14:45.231Z,6.82
2024-02-02T07:17:30.369Z,6.79
2024-02-02T07:19:58.452Z,6.78
2024-02-02T07:22:40.908Z,6.75
2024-02-02T07:25:11.538Z,6.73
2024-02-02T07:27:55.565Z,6.73
2024-02-02T07:30:56.504Z,6.75
2024-02-02T07:33:24.796Z,6.79
2024-02-02T07:35:52.216Z,6.83
2024-02-02T07:38:50.735Z,6.91
2024-02-02T07:41:18.288Z,6.93
2024-02-02T07:43:45.946Z,6.98
2024-02-02T07:46:15.670Z,6.96
2024-02-02T07:48:43.521Z,6.93
2024-02-02T07:51:11.106Z,6.96
2024-02-02T07:53:37.754Z,7.08
2024-02-02T07:56:04.478Z,7.14
2024-02-02T07:58:31.022Z,7.22
2024-02-02T08:00:58.967Z,7.21
2024-02-02T08:03:25.868Z,7.30
2024-02-02T08:05:52.638Z,7.33
2024-02-02T08:08:19.427Z,7.38
2024-02-02T08:10:47.310Z,7.41
2024-02-02T08:13:15.229Z,7.37
2024-02-02T08:15:41.958Z,7.34
2024-02-02T08:18:10.087Z,7.41
2024-02-02T08:20:36.752Z,7.41
2024-02-02T08:23:03.869Z,7.35
2024-02-02T08:25:30.708Z,7.41
2024-02-02T08:27:57.792Z,7.46
2024-02-02T08:30:24.991Z,7.49
2024-02-02T08:32:52.849Z,7.58
2024-02-02T08:35:23.679Z,7.64
2024-02-02T08:38:01.159Z,7.74
2024-02-02T08:40:35.397Z,7.78
2024-02-02T08:43:02.986Z,7.81
2024-02-02T08:46:03.579Z,7.85
2024-02-02T08:48:46.466Z,7.88
2024-02-02T08:51:22.839Z,7.91
2024-02-02T08:54:06.486Z,7.94
2024-02-02T08:56:33.137Z,8.02
2024-02-02T08:58:59.640Z,8.13
2024-02-02T09:01:43.298Z,8.19
2024-02-02T09:05:00.071Z,8.24
2024-02-02T09:07:26.727Z,8.22
2024-02-02T09:09:53.410Z,8.29
2024-02-02T09:12:20.160Z,8.34
2024-02-02T09:14:46.758Z,8.42
2024-02-02T09:17:14.041Z,8.53
2024-02-02T09:19:47.078Z,8.53
2024-02-02T09:22:17.410Z,8.55
2024-02-02T09:24:46.850Z,8.53
2024-02-02T09:27:15.367Z,8.57
2024-02-02T09:29:48.326Z,8.63
2024-02-02T09:32:16.716Z,8.68
2024-02-02T09:34:46.644Z,8.74
2024-02-02T09:37:26.684Z,8.86
2024-02-02T09:39:57.484Z,9.01
2024-02-02T09:42:51.942Z,9.05
2024-02-02T09:45:34.278Z,9.01
2024-02-02T09:48:14.117Z,9.11
2024-02-02T09:51:22.688Z,9.19
2024-02-02T09:54:01.750Z,9.25
2024-02-02T09:56:34.088Z,9.27
2024-02-02T09:59:05.357Z,9.25
2024-02-02T10:01:46.979Z,9.34
2024-02-02T10:04:22.045Z,9.46
2024-02-02T10:07:07.445Z,9.50
2024-02-02T10:09:56.702Z,9.67
2024-02-02T10:12:42.146Z,9.73
2024-02-02T10:15:43.787Z,9.84
2024-02-02T10:18:25.455Z,9.91
2024-02-02T10:21:21.381Z,9.85
2024-02-02T10:24:18.287Z,9.88
2024-02-02T10:26:58.162Z,9.88
2024-02-02T10:29:55.803Z,9.93
2024-02-02T10:32:45.380Z,10.00
2024-02-02T10:35:50.393Z,10.09
2024-02-02T10:38:50.696Z,10.10
2024-02-02T10:41:22.937Z,10.16
2024-02-02T10:44:27.136Z,10.23
2024-02-02T10:47:15.269Z,10.21
2024-02-02T10:50:16.271Z,10.27
2024-02-02T10:53:10.320Z,10.33
2024-02-02T10:55:55.287Z,10.31
2024-02-02T10:58:31.043Z,10.33
2024-02-02T11:01:12.869Z,10.38
2024-02-02T11:03:59.289Z,10.43
2024-02-02T11:06:54.177Z,10.60
2024-02-02T11:09:26.733Z,10.76
2024-02-02T11:12:08.413Z,10.80
2024-02-02T11:14:54.940Z,10.92
2024-02-02T11:17:34.836Z,11.03
2024-02-02T11:20:22.895Z,11.01
2024-02-02T11:23:04.723Z,10.88
2024-02-02T11:25:42.291Z,10.94
2024-02-02T11:28:20.700Z,11.04
2024-02-02T11:31:26.096Z,11.03
2024-02-02T11:34:01.307Z,11.04
2024-02-02T11:36:55.534Z,11.05
2024-02-02T11:39:40.725Z,10.92
2024-02-02T11:42:11.927Z,10.84
2024-02-02T11:44:41.734Z,10.82
2024-02-02T11:47:10.558Z,10.82
2024-02-02T11:49:45.288Z,10.88
2024-02-02T11:52:40.627Z,10.94
2024-02-02T11:55:16.284Z,10.88
2024-02-02T11:57:50.202Z,10.89
2024-02-02T12:00:25.087Z,10.88
2024-02-02T12:03:28.047Z,10.87
2024-02-02T12:06:06.852Z,10.82
2024-02-02T12:08:44.179Z,10.76
2024-02-02T12:11:15.777Z,10.77
2024-02-02T12:13:45.922Z,10.67
2024-02-02T12:16:12.617Z,10.55
2024-02-02T12:18:39.549Z,10.51
2024-02-02T12:21:13.629Z,10.51
2024-02-02T12:23:40.259Z,10.57
2024-02-02T12:26:08.123Z,10.60
2024-02-02T12:28:34.627Z,10.66
2024-02-02T12:31:02.108Z,10.58
2024-02-02T12:33:28.709Z,10.54
2024-02-02T12:35:58.405Z,10.54
2024-02-02T12:38:27.638Z,10.44
2024-02-02T12:40:54.180Z,10.41
2024-02-02T12:43:25.507Z,10.42
2024-02-02T12:45:54.467Z,10.46
2024-02-02T12:48:21.507Z,10.50
2024-02-02T12:50:50.452Z,10.55
2024-02-02T12:53:18.047Z,10.63
2024-02-02T12:55:46.481Z,10.71
2024-02-02T12:58:13.043Z,10.76
2024-02-02T13:00:40.181Z,10.77
2024-02-02T13:03:08.674Z,10.77
2024-02-02T13:05:35.274Z,10.82
2024-02-02T13:08:03.899Z,10.98
2024-02-02T13:10:45.141Z,11.14
2024-02-02T13:13:13.082Z,11.14
2024-02-02T13:15:40.081Z,11.10
2024-02-02T13:18:13.551Z,11.10
2024-02-02T13:20:43.047Z,11.15
2024-02-02T13:23:14.213Z,11.21
2024-02-02T13:25:41.774Z,11.24
2024-02-02T13:28:17.357Z,11.38
2024-02-02T13:31:05.812Z,11.50
2024-02-02T13:33:34.143Z,11.62
2024-02-02T13:36:02.880Z,11.78
2024-02-02T13:38:32.465Z,11.84
2024-02-02T13:41:00.777Z,11.92
2024-02-02T13:43:28.909Z,12.08
2024-02-02T13:46:06.269Z,12.21
2024-02-02T13:48:44.408Z,12.30
2024-02-02T13:51:11.539Z,12.50
2024-02-02T13:53:38.211Z,12.58
2024-02-02T13:56:06.323Z,12.67
2024-02-02T13:58:39.954Z,12.88
2024-02-02T14:01:21.633Z,13.00
2024-02-02T14:03:52.496Z,13.08
2024-02-02T14:06:19.900Z,13.33
2024-02-02T14:08:49.664Z,13.60
2024-02-02T14:11:23.845Z,13.86
2024-02-02T14:13:51.441Z,13.83
2024-02-02T14:16:25.886Z,13.69
2024-02-02T14:18:59.303Z,13.74
2024-02-02T14:21:30.512Z,13.72
2024-02-02T14:24:13.563Z,13.73
2024-02-02T14:26:57.614Z,13.79
2024-02-02T14:29:28.150Z,13.89
2024-02-02T14:31:59.149Z,13.89
2024-02-02T14:34:28.343Z,13.69
2024-02-02T14:36:55.824Z,13.35
2024-02-02T14:39:27.055Z,13.00
2024-02-02T14:41:55.124Z,12.66
2024-02-02T14:44:22.091Z,12.38
2024-02-02T14:46:48.885Z,12.31
2024-02-02T14:49:16.082Z,12.23
2024-02-02T14:51:42.812Z,12.21
2024-02-02T14:54:09.586Z,12.11
2024-02-02T14:56:39.283Z,12.03
2024-02-02T14:59:09.563Z,11.96
2024-02-02T15:01:37.456Z,11.89
2024-02-02T15:04:05.516Z,11.77
2024-02-02T15:06:33.686Z,11.69
2024-02-02T15:09:00.990Z,11.65
2024-02-02T15:11:28.431Z,11.63
2024-02-02T15:13:55.904Z,11.62
2024-02-02T15:16:22.428Z,11.60
2024-02-02T15:18:49.122Z,11.51
2024-02-02T15:21:16.240Z,11.46
2024-02-02T15:23:43.252Z,11.52
2024-02-02T15:26:10.341Z,11.57
2024-02-02T15:28:39.701Z,11.57
2024-02-02T15:31:09.712Z,11.56
2024-02-02T15:33:36.414Z,11.54
2024-02-02T15:36:03.501Z,11.54
2024-02-02T15:38:30.010Z,11.47
2024-02-02T15:40:59.024Z,11.28
2024-02-02T15:43:25.770Z,11.15
2024-02-02T15:45:52.981Z,11.13
2024-02-02T15:48:20.142Z,11.01
2024-02-02T15:50:47.384Z,10.96
2024-02-02T15:53:13.925Z,10.96
2024-02-02T15:55:40.546Z,10.98
2024-02-02T15:58:07.165Z,11.00
2024-02-02T16:00:33.755Z,10.94
2024-02-02T16:03:00.267Z,10.93
2024-02-02T16:05:26.921Z,10.86
2024-02-02T16:07:53.436Z,10.80
2024-02-02T16:10:20.062Z,10.76
2024-02-02T16:12:46.711Z,10.69
2024-02-02T16:15:13.876Z,10.66
2024-02-02T16:17:41.179Z,10.61
2024-02-02T16:20:11.870Z,10.59
2024-02-02T16:22:42.183Z,10.54
2024-02-02T16:25:10.140Z,10.48
2024-02-02T16:27:36.905Z,10.47
2024-02-02T16:30:03.612Z,10.43
2024-02-02T16:32:30.140Z,10.43
2024-02-02T16:34:57.048Z,10.39
2024-02-02T16:37:24.248Z,10.30
2024-02-02T16:39:51.037Z,10.23
2024-02-02T16:42:18.320Z,10.17
2024-02-02T16:44:44.907Z,10.05
2024-02-02T16:47:11.635Z,10.04
2024-02-02T16:49:39.863Z,10.00
2024-02-02T16:52:06.936Z,10.00
2024-02-02T16:54:33.502Z,10.03
2024-02-02T16:57:00.124Z,10.04
2024-02-02T16:59:27.221Z,10.03
2024-02-02T17:01:53.785Z,9.95
2024-02-02T17:04:20.406Z,9.95
2024-02-02T17:06:47.050Z,9.92
2024-02-02T17:09:13.717Z,9.89
2024-02-02T17:11:40.341Z,9.82
2024-02-02T17:14:06.925Z,9.80
2024-02-02T17:16:33.592Z,9.83
2024-02-02T17:19:00.251Z,9.83
2024-02-02T17:21:27.212Z,9.86
2024-02-02T17:23:54.170Z,9.90
2024-02-02T17:26:20.777Z,9.92
2024-02-02T17:28:47.658Z,9.95
2024-02-02T17:31:15.782Z,9.92
2024-02-02T17:33:43.098Z,9.90
2024-02-02T17:36:16.531Z,9.86
2024-02-02T17:38:43.951Z,9.84
2024-02-02T17:41:15.663Z,9.86
2024-02-02T17:43:44.119Z,9.83
2024-02-02T17:46:17.583Z,9.84
2024-02-02T17:48:44.201Z,9.82
2024-02-02T17:51:11.371Z,9.78
2024-02-02T17:53:41.085Z,9.74
2024-02-02T17:56:09.135Z,9.73
2024-02-02T17:58:36.477Z,9.69
2024-02-02T18:01:03.308Z,9.70
2024-02-02T18:03:30.678Z,9.73
2024-02-02T18:05:57.273Z,9.69
2024-02-02T18:08:23.866Z,9.74
2024-02-02T18:10:50.917Z,9.70
2024-02-02T18:13:17.569Z,9.71
2024-02-02T18:15:44.477Z,9.63
2024-02-02T18:18:12.146Z,9.60
2024-02-02T18:20:38.843Z,9.59
2024-02-02T18:23:07.040Z,9.60
2024-02-02T18:25:33.669Z,9.59
2024-02-02T18:28:00.407Z,9.52
2024-02-02T18:30:28.838Z,9.55
2024-02-02T18:32:55.709Z,9.55
2024-02-02T18:35:22.423Z,9.56
2024-02-02T18:37:50.150Z,9.52
2024-02-02T18:40:17.064Z,9.46
2024-02-02T18:42:43.636Z,9.48
2024-02-02T18:45:10.582Z,9.43
2024-02-02T18:47:39.035Z,9.46
2024-02-02T18:50:07.520Z,9.48
2024-02-02T18:52:34.076Z,9.49
2024-02-02T18:55:00.615Z,9.47
2024-02-02T18:57:27.138Z,9.49
2024-02-02T18:59:53.669Z,9.47
2024-02-02T19:02:20.211Z,9.52
2024-02-02T19:04:46.973Z,9.49
2024-02-02T19:07:14.181Z,9.51
2024-02-02T19:09:40.958Z,9.49
2024-02-02T19:12:07.702Z,9.51
2024-02-02T19:14:34.333Z,9.57
2024-02-02T19:17:00.820Z,9.59
2024-02-02T19:19:27.389Z,9.66
2024-02-02T19:21:53.985Z,9.63
2024-02-02T19:24:20.532Z,9.55
2024-02-02T19:26:47.349Z,9.41
2024-02-02T19:29:13.842Z,9.32
2024-02-02T19:31:40.649Z,9.22
2024-02-02T19:34:07.869Z,9.19
2024-02-02T19:36:34.790Z,9.14
2024-02-02T19:39:02.079Z,9.13
2024-02-02T19:41:33.317Z,9.10
2024-02-02T19:44:00.359Z,9.12
2024-02-02T19:46:26.900Z,9.13
2024-02-02T19:48:54.610Z,9.07
2024-02-02T19:51:23.072Z,9.02
2024-02-02T19:53:49.936Z,8.97
2024-02-02T19:56:16.756Z,8.92
2024-02-02T19:58:43.667Z,8.83
2024-02-02T20:01:14.534Z,8.86
2024-02-02T20:03:42.089Z,8.85
2024-02-02T20:06:10.046Z,8.80
2024-02-02T20:08:39.158Z,8.80
2024-02-02T20:11:05.782Z,8.86
2024-02-02T20:13:32.484Z,8.84
2024-02-02T20:15:58.978Z,8.85
2024-02-02T20:18:25.661Z,8.86
2024-02-02T20:20:54.776Z,8.87
2024-02-02T20:23:21.737Z,8.89
2024-02-02T20:25:48.503Z,8.86
2024-02-02T20:28:15.145Z,8.79
2024-02-02T20:30:41.789Z,8.81
2024-02-02T20:33:08.862Z,8.82
2024-02-02T20:35:35.502Z,8.81
2024-02-02T20:38:02.101Z,8.80
2024-02-02T20:40:28.582Z,8.80
2024-02-02T20:42:55.184Z,8.81
2024-02-02T20:45:22.399Z,8.81
2024-02-02T20:47:48.915Z,8.85
2024-02-02T20:50:15.569Z,8.83
2024-02-02T20:52:42.152Z,8.81
2024-02-02T20:55:09.167Z,8.82
2024-02-02T20:57:35.790Z,8.83
2024-02-02T21:00:02.296Z,8.84
2024-02-02T21:02:28.823Z,8.86
2024-02-02T21:04:55.360Z,8.89
2024-02-02T21:07:22.272Z,8.92
2024-02-02T21:09:49.047Z,8.93
2024-02-02T21:12:15.733Z,8.93
2024-02-02T21:14:42.379Z,8.94
2024-02-02T21:17:09.176Z,8.92
2024-02-02T21:19:35.874Z,8.92
2024-02-02T21:22:06.662Z,8.94
2024-02-02T21:24:33.757Z,8.96
2024-02-02T21:27:00.405Z,8.94
2024-02-02T21:29:26.996Z,9.00
2024-02-02T21:31:53.534Z,8.99
2024-02-02T21:34:20.063Z,8.99
2024-02-02T21:36:46.765Z,8.97
2024-02-02T21:39:13.557Z,8.98
2024-02-02T21:41:40.160Z,9.02
2024-02-02T21:44:10.092Z,9.02
2024-02-02T21:46:37.005Z,9.01
2024-02-02T21:49:04.036Z,9.03
2024-02-02T21:51:30.694Z,9.02
2024-02-02T21:53:57.293Z,9.03
2024-02-02T21:56:23.851Z,9.01
2024-02-02T21:58:50.363Z,9.02
2024-02-02T22:01:16.986Z,9.00
2024-02-02T22:03:43.619Z,9.03
2024-02-02T22:06:10.836Z,9.05
2024-02-02T22:08:37.471Z,9.05
2024-02-02T22:11:04.132Z,9.13
2024-02-02T22:13:30.698Z,9.18
2024-02-02T22:15:57.306Z,9.23
2024-02-02T22:18:23.904Z,9.23
2024-02-02T22:20:50.470Z,9.23
2024-02-02T22:23:16.992Z,9.24
2024-02-02T22:25:43.494Z,9.18
2024-02-02T22:28:10.096Z,9.14
2024-02-02T22:30:36.630Z,9.16
2024-02-02T22:33:03.827Z,9.21
2024-02-02T22:35:30.513Z,9.22
2024-02-02T22:37:57.017Z,9.21
2024-02-02T22:40:23.610Z,9.22
2024-02-02T22:42:50.160Z,9.23
2024-02-02T22:45:17.163Z,9.21
2024-02-02T22:47:43.827Z,9.18
2024-02-02T22:50:11.669Z,9.17
2024-02-02T22:52:38.379Z,9.24
2024-02-02T22:55:05.190Z,9.29
2024-02-02T22:57:31.789Z,9.29
2024-02-02T23:00:02.523Z,9.28
2024-02-02T23:02:32.992Z,9.26
2024-02-02T23:04:59.518Z,9.24
2024-02-02T23:07:26.364Z,9.24
2024-02-02T23:09:52.950Z,9.23
2024-02-02T23:12:19.957Z,9.25
2024-02-02T23:14:46.458Z,9.22
2024-02-02T23:17:13.085Z,9.18
2024-02-02T23:19:43.889Z,9.20
2024-02-02T23:22:11.548Z,9.21
2024-02-02T23:24:38.112Z,9.22
2024-02-02T23:27:04.889Z,9.15
2024-02-02T23:29:31.460Z,9.13
2024-02-02T23:31:57.955Z,9.12
2024-02-02T23:34:24.614Z,9.10
2024-02-02T23:36:52.233Z,9.16
2024-02-02T23:39:19.070Z,9.19
2024-02-02T23:41:45.590Z,9.20
2024-02-02T23:44:12.157Z,9.17
2024-02-02T23:46:38.675Z,9.15
2024-02-02T23:49:05.766Z,9.19
2024-02-02T23:51:32.446Z,9.19
2024-02-02T23:53:58.968Z,9.20
2024-02-02T23:56:25.438Z,9.24
2024-02-02T23:58:51.936Z,9.22
